Time,TemperatureF,DewpointF,PressureIn,WindDirection,WindDirectionDegrees,WindSpeedMPH,WindSpeedGustMPH,Humidity,HourlyPrecipIn,Conditions,Clouds,dailyrainin,SoftwareType,DateUTC
2013-04-22 00:01:00,42.6,28.9,30.59,ESE,112,2.6,2.6,58,0.00,,CLR,0.00,VWS V13.01,2013-04-22 04:01:00,
2013-04-22 00:02:00,42.6,28.9,30.59,ESE,112,2.6,2.6,58,0.00,,CLR,0.00,VWS V13.01,2013-04-22 04:02:00,
2013-04-22 00:07:00,42.6,29.3,30.59,ESE,112,1.1,2.0,58,0.00,,CLR,0.00,VWS V13.01,2013-04-22 04:07:00,
2013-04-22 00:12:00,42.6,29.3,30.59,ESE,112,1.1,2.0,59,0.00,,CLR,0.00,VWS V13.01,2013-04-22 04:12:00,
2013-04-22 00:17:00,42.4,29.1,30.59,ESE,112,0.4,2.0,59,0.00,,CLR,0.00,VWS V13.01,2013-04-22 04:17:00,
2013-04-22 00:22:00,42.4,29.1,30.59,SSE,158,7.1,7.1,59,0.00,,CLR,0.00,VWS V13.01,2013-04-22 04:22:00,
2013-04-22 00:27:00,42.4,29.1,30.59,ESE,112,1.3,2.0,59,0.00,,CLR,0.00,VWS V13.01,2013-04-22 04:27:00,
2013-04-22 00:32:00,42.2,28.9,30.59,East,90,2.0,2.0,59,0.00,,CLR,0.00,VWS V13.01,2013-04-22 04:32:00,
2013-04-22 00:37:00,42.0,28.7,30.59,ESE,112,2.9,2.9,59,0.00,,CLR,0.00,VWS V13.01,2013-04-22 04:37:00,
2013-04-22 00:42:00,42.0,29.1,30.59,ESE,112,1.1,2.0,59,0.00,,CLR,0.00,VWS V13.01,2013-04-22 04:42:00,
2013-04-22 00:47:00,42.0,29.1,30.59,SE,135,2.9,2.9,60,0.00,,CLR,0.00,VWS V13.01,2013-04-22 04:47:00,
2013-04-22 00:52:00,41.9,29.0,30.59,ESE,112,0.8,2.0,60,0.00,,CLR,0.00,VWS V13.01,2013-04-22 04:52:00,
2013-04-22 00:57:00,41.7,28.9,30.59,East,90,3.5,3.5,60,0.00,,CLR,0.00,VWS V13.01,2013-04-22 04:57:00,
2013-04-22 01:02:00,41.7,28.9,30.59,ESE,112,3.1,3.1,60,0.00,,CLR,0.00,VWS V13.01,2013-04-22 05:02:00,
2013-04-22 01:07:00,41.7,28.7,30.59,SE,135,3.1,3.1,60,0.00,,CLR,0.00,VWS V13.01,2013-04-22 05:07:00,
2013-04-22 01:12:00,41.5,28.7,30.59,East,90,3.3,3.3,60,0.00,,CLR,0.00,VWS V13.01,2013-04-22 05:12:00,
2013-04-22 01:17:00,41.5,28.7,30.59,East,90,4.0,4.0,60,0.00,,CLR,0.00,VWS V13.01,2013-04-22 05:17:00,
2013-04-22 01:22:00,41.3,28.9,30.58,East,90,1.5,2.0,61,0.00,,CLR,0.00,VWS V13.01,2013-04-22 05:22:00,
2013-04-22 01:27:00,41.3,28.7,30.59,SE,135,4.0,4.0,61,0.00,,CLR,0.00,VWS V13.01,2013-04-22 05:27:00,
2013-04-22 01:32:00,41.3,28.7,30.58,ENE,68,4.2,4.2,61,0.00,,CLR,0.00,VWS V13.01,2013-04-22 05:32:00,
2013-04-22 01:37:00,41.3,28.6,30.59,SE,135,2.0,2.0,61,0.00,,CLR,0.00,VWS V13.01,2013-04-22 05:37:00,
2013-04-22 01:42:00,41.0,28.4,30.58,ESE,112,1.3,2.0,61,0.00,,CLR,0.00,VWS V13.01,2013-04-22 05:42:00,
2013-04-22 01:47:00,40.8,28.4,30.58,ESE,112,1.3,2.0,61,0.00,,CLR,0.00,VWS V13.01,2013-04-22 05:47:00,
2013-04-22 01:52:00,40.8,28.4,30.58,ENE,68,1.3,2.0,61,0.00,,CLR,0.00,VWS V13.01,2013-04-22 05:52:00,
2013-04-22 01:57:00,40.6,28.2,30.58,East,90,1.3,2.0,61,0.00,,CLR,0.00,VWS V13.01,2013-04-22 05:57:00,
2013-04-22 02:02:00,40.6,28.2,30.58,South,180,1.3,2.0,61,0.00,,CLR,0.00,VWS V13.01,2013-04-22 06:02:00,
2013-04-22 02:07:00,40.6,28.0,30.58,ESE,112,0.4,2.0,61,0.00,,CLR,0.00,VWS V13.01,2013-04-22 06:07:00,
2013-04-22 02:12:00,40.4,28.0,30.58,SE,135,2.6,2.6,61,0.00,,CLR,0.00,VWS V13.01,2013-04-22 06:12:00,
2013-04-22 02:17:00,40.4,27.8,30.57,SE,135,5.1,5.1,61,0.00,,CLR,0.00,VWS V13.01,2013-04-22 06:17:00,
2013-04-22 02:22:00,40.2,27.8,30.57,ESE,112,0.4,2.0,61,0.00,,CLR,0.00,VWS V13.01,2013-04-22 06:22:00,
2013-04-22 02:27:00,40.2,27.8,30.57,ESE,112,1.5,2.0,61,0.00,,CLR,0.00,VWS V13.01,2013-04-22 06:27:00,
2013-04-22 02:32:00,40.1,28.0,30.57,SE,135,6.4,6.4,61,0.00,,CLR,0.00,VWS V13.01,2013-04-22 06:32:00,
2013-04-22 02:37:00,39.9,28.0,30.57,East,90,1.3,2.0,61,0.00,,CLR,0.00,VWS V13.01,2013-04-22 06:37:00,
2013-04-22 02:42:00,39.9,27.8,30.57,ENE,68,1.5,2.0,62,0.00,,CLR,0.00,VWS V13.01,2013-04-22 06:42:00,
2013-04-22 02:47:00,39.7,27.8,30.58,SSE,158,5.5,5.5,62,0.00,,CLR,0.00,VWS V13.01,2013-04-22 06:47:00,
2013-04-22 02:52:00,39.7,27.8,30.57,ESE,112,1.7,2.0,62,0.00,,CLR,0.00,VWS V13.01,2013-04-22 06:52:00,
2013-04-22 02:57:00,39.7,27.8,30.57,East,90,1.7,2.0,62,0.00,,CLR,0.00,VWS V13.01,2013-04-22 06:57:00,
2013-04-22 03:02:00,39.5,27.6,30.57,ESE,112,2.6,2.6,62,0.00,,CLR,0.00,VWS V13.01,2013-04-22 07:02:00,
2013-04-22 03:07:00,39.5,27.6,30.57,ENE,68,5.1,5.1,62,0.00,,CLR,0.00,VWS V13.01,2013-04-22 07:07:00,
2013-04-22 03:12:00,39.5,27.4,30.57,SE,135,4.4,4.4,62,0.00,,CLR,0.00,VWS V13.01,2013-04-22 07:12:00,
2013-04-22 03:17:00,39.3,27.8,30.57,ESE,112,3.5,3.5,63,0.00,,CLR,0.00,VWS V13.01,2013-04-22 07:17:00,
2013-04-22 03:22:00,39.3,27.8,30.57,ESE,112,6.2,6.2,63,0.00,,CLR,0.00,VWS V13.01,2013-04-22 07:22:00,
2013-04-22 03:27:00,39.3,27.8,30.57,SSE,158,6.4,6.4,63,0.00,,CLR,0.00,VWS V13.01,2013-04-22 07:27:00,
2013-04-22 03:32:00,39.2,27.5,30.56,SE,135,1.5,2.0,63,0.00,,CLR,0.00,VWS V13.01,2013-04-22 07:32:00,
2013-04-22 03:37:00,39.0,27.5,30.56,East,90,2.6,2.6,63,0.00,,CLR,0.00,VWS V13.01,2013-04-22 07:37:00,
2013-04-22 03:42:00,39.0,27.5,30.56,SSE,158,4.2,4.2,63,0.00,,CLR,0.00,VWS V13.01,2013-04-22 07:42:00,
2013-04-22 03:47:00,39.0,27.5,30.56,ESE,112,4.2,4.2,63,0.00,,CLR,0.00,VWS V13.01,2013-04-22 07:47:00,
2013-04-22 03:52:00,39.0,27.3,30.56,ESE,112,6.4,6.4,63,0.00,,CLR,0.00,VWS V13.01,2013-04-22 07:52:00,
2013-04-22 03:57:00,38.8,27.3,30.56,NE,45,6.4,6.4,63,0.00,,CLR,0.00,VWS V13.01,2013-04-22 07:57:00,
2013-04-22 04:02:00,38.8,27.1,30.56,NE,45,6.4,6.4,63,0.00,,CLR,0.00,VWS V13.01,2013-04-22 08:02:00,
2013-04-22 04:07:00,38.4,26.9,30.56,ENE,68,2.6,2.6,63,0.00,,CLR,0.00,VWS V13.01,2013-04-22 08:07:00,
2013-04-22 04:12:00,38.4,27.2,30.57,ENE,68,2.6,2.6,64,0.00,,CLR,0.00,VWS V13.01,2013-04-22 08:12:00,
2013-04-22 04:17:00,38.1,26.8,30.57,ENE,68,2.6,2.6,64,0.00,,CLR,0.00,VWS V13.01,2013-04-22 08:17:00,
2013-04-22 04:22:00,37.9,26.6,30.57,ENE,68,2.6,2.6,64,0.00,,CLR,0.00,VWS V13.01,2013-04-22 08:22:00,
2013-04-22 04:27:00,37.7,26.8,30.57,East,90,2.6,2.6,64,0.00,,CLR,0.00,VWS V13.01,2013-04-22 08:27:00,
2013-04-22 04:32:00,37.5,26.8,30.56,East,90,5.8,5.8,65,0.00,,CLR,0.00,VWS V13.01,2013-04-22 08:32:00,
2013-04-22 04:37:00,37.5,26.7,30.56,ENE,68,5.8,5.8,65,0.00,,CLR,0.00,VWS V13.01,2013-04-22 08:37:00,
2013-04-22 04:42:00,37.5,26.5,30.56,ENE,68,3.3,3.3,65,0.00,,CLR,0.00,VWS V13.01,2013-04-22 08:42:00,
2013-04-22 04:47:00,37.2,26.5,30.56,ESE,112,0.4,2.0,65,0.00,,CLR,0.00,VWS V13.01,2013-04-22 08:47:00,
2013-04-22 04:52:00,37.2,26.5,30.56,East,90,0.4,2.0,65,0.00,,CLR,0.00,VWS V13.01,2013-04-22 08:52:00,
2013-04-22 04:57:00,37.2,26.3,30.56,East,90,0.2,2.0,65,0.00,,CLR,0.00,VWS V13.01,2013-04-22 08:57:00,
2013-04-22 05:02:00,37.0,26.7,30.57,NE,45,0.2,2.0,66,0.00,,CLR,0.00,VWS V13.01,2013-04-22 09:02:00,
2013-04-22 05:07:00,36.6,26.5,30.56,NE,45,0.2,2.0,66,0.00,,CLR,0.00,VWS V13.01,2013-04-22 09:07:00,
2013-04-22 05:12:00,36.8,26.2,30.56,NE,45,0.2,2.0,66,0.00,,CLR,0.00,VWS V13.01,2013-04-22 09:12:00,
2013-04-22 05:17:00,36.5,26.0,30.56,NE,45,0.2,2.0,66,0.00,,CLR,0.00,VWS V13.01,2013-04-22 09:17:00,
2013-04-22 05:22:00,36.5,26.0,30.56,NE,45,0.2,2.0,66,0.00,,CLR,0.00,VWS V13.01,2013-04-22 09:22:00,
2013-04-22 05:27:00,36.3,25.9,30.57,NE,45,0.2,2.0,66,0.00,,CLR,0.00,VWS V13.01,2013-04-22 09:27:00,
2013-04-22 05:32:00,35.9,25.7,30.56,NE,45,0.2,2.0,66,0.00,,CLR,0.00,VWS V13.01,2013-04-22 09:32:00,
2013-04-22 05:37:00,35.7,25.8,30.56,NE,45,0.2,2.0,67,0.00,,CLR,0.00,VWS V13.01,2013-04-22 09:37:00,
2013-04-22 05:42:00,35.7,25.8,30.56,NE,45,0.2,2.0,67,0.00,,CLR,0.00,VWS V13.01,2013-04-22 09:42:00,
2013-04-22 05:47:00,35.7,25.7,30.56,NE,45,0.2,2.0,67,0.00,,CLR,0.00,VWS V13.01,2013-04-22 09:47:00,
2013-04-22 05:52:00,35.4,25.5,30.56,NE,45,0.2,2.0,67,0.00,,CLR,0.00,VWS V13.01,2013-04-22 09:52:00,
2013-04-22 05:57:00,35.4,25.5,30.56,NE,45,0.2,2.0,67,0.00,,CLR,0.00,VWS V13.01,2013-04-22 09:57:00,
2013-04-22 06:02:00,35.2,25.4,30.56,NE,45,0.2,2.0,67,0.00,,CLR,0.00,VWS V13.01,2013-04-22 10:02:00,
2013-04-22 06:07:00,35.0,25.0,30.56,NE,45,0.2,2.0,67,0.00,,CLR,0.00,VWS V13.01,2013-04-22 10:07:00,
2013-04-22 06:12:00,34.8,25.0,30.56,NE,45,0.2,2.0,67,0.00,,CLR,0.00,VWS V13.01,2013-04-22 10:12:00,
2013-04-22 06:17:00,34.7,24.9,30.56,NE,45,0.2,2.0,67,0.00,,CLR,0.00,VWS V13.01,2013-04-22 10:17:00,
2013-04-22 06:22:00,34.7,24.9,30.56,NE,45,0.2,2.0,67,0.00,,CLR,0.00,VWS V13.01,2013-04-22 10:22:00,
2013-04-22 06:27:00,34.5,24.7,30.57,NE,45,0.2,2.0,67,0.00,,CLR,0.00,VWS V13.01,2013-04-22 10:27:00,
2013-04-22 06:32:00,34.5,24.7,30.57,NE,45,0.2,2.0,67,0.00,,CLR,0.00,VWS V13.01,2013-04-22 10:32:00,
2013-04-22 06:37:00,34.3,24.5,30.57,NE,45,0.2,2.0,67,0.00,,CLR,0.00,VWS V13.01,2013-04-22 10:37:00,
2013-04-22 06:42:00,34.3,24.3,30.57,NE,45,0.2,2.0,67,0.00,,CLR,0.00,VWS V13.01,2013-04-22 10:42:00,
2013-04-22 06:47:00,34.1,24.1,30.57,NE,45,0.2,2.0,67,0.00,,CLR,0.00,VWS V13.01,2013-04-22 10:47:00,
2013-04-22 06:52:00,33.9,24.0,30.57,NE,45,0.2,2.0,67,0.00,,CLR,0.00,VWS V13.01,2013-04-22 10:52:00,
2013-04-22 06:57:00,33.6,23.8,30.57,NE,45,0.2,2.0,67,0.00,,CLR,0.00,VWS V13.01,2013-04-22 10:57:00,
2013-04-22 07:02:00,33.4,24.2,30.57,NE,45,0.2,2.0,68,0.00,,CLR,0.00,VWS V13.01,2013-04-22 11:02:00,
2013-04-22 07:07:00,33.6,24.0,30.57,NE,45,0.2,2.0,68,0.00,,CLR,0.00,VWS V13.01,2013-04-22 11:07:00,
2013-04-22 07:12:00,33.6,24.0,30.57,NE,45,0.2,2.0,68,0.00,,CLR,0.00,VWS V13.01,2013-04-22 11:12:00,
2013-04-22 07:17:00,33.4,24.0,30.57,NE,45,0.2,2.0,68,0.00,,CLR,0.00,VWS V13.01,2013-04-22 11:17:00,
2013-04-22 07:22:00,33.4,24.2,30.58,NE,45,0.2,2.0,68,0.00,,CLR,0.00,VWS V13.01,2013-04-22 11:22:00,
2013-04-22 07:27:00,33.6,24.2,30.58,NE,45,0.2,2.0,68,0.00,,CLR,0.00,VWS V13.01,2013-04-22 11:27:00,
2013-04-22 07:32:00,33.6,24.5,30.58,NE,45,0.2,2.0,68,0.00,,CLR,0.00,VWS V13.01,2013-04-22 11:32:00,
2013-04-22 07:37:00,33.6,24.8,30.57,NE,45,0.2,2.0,68,0.00,,CLR,0.00,VWS V13.01,2013-04-22 11:37:00,
2013-04-22 07:42:00,33.9,25.0,30.58,NE,45,0.2,2.0,69,0.00,,CLR,0.00,VWS V13.01,2013-04-22 11:42:00,
2013-04-22 07:47:00,34.3,24.8,30.58,ENE,68,3.3,3.3,69,0.00,,CLR,0.00,VWS V13.01,2013-04-22 11:47:00,
2013-04-22 07:52:00,34.5,25.7,30.58,ENE,68,3.3,3.3,69,0.00,,CLR,0.00,VWS V13.01,2013-04-22 11:52:00,
2013-04-22 07:57:00,34.8,26.1,30.58,ENE,68,3.3,3.3,69,0.00,,CLR,0.00,VWS V13.01,2013-04-22 11:57:00,
2013-04-22 08:02:00,35.4,26.3,30.58,East,90,3.3,3.3,69,0.00,,CLR,0.00,VWS V13.01,2013-04-22 12:02:00,
2013-04-22 08:07:00,35.7,26.9,30.58,East,90,3.3,3.3,70,0.00,,CLR,0.00,VWS V13.01,2013-04-22 12:07:00,
2013-04-22 08:12:00,35.7,27.5,30.58,SE,135,3.3,3.3,70,0.00,,CLR,0.00,VWS V13.01,2013-04-22 12:12:00,
2013-04-22 08:17:00,36.3,27.4,30.59,ENE,68,1.1,2.0,69,0.00,,CLR,0.00,VWS V13.01,2013-04-22 12:17:00,
2013-04-22 08:22:00,36.8,27.4,30.59,NE,45,1.1,2.0,69,0.00,,CLR,0.00,VWS V13.01,2013-04-22 12:22:00,
2013-04-22 08:27:00,37.2,27.6,30.59,NE,45,1.1,2.0,68,0.00,,CLR,0.00,VWS V13.01,2013-04-22 12:27:00,
2013-04-22 08:32:00,37.5,28.1,30.59,ESE,112,1.5,2.0,68,0.00,,CLR,0.00,VWS V13.01,2013-04-22 12:32:00,
2013-04-22 08:37:00,37.9,28.1,30.59,East,90,0.4,2.0,67,0.00,,CLR,0.00,VWS V13.01,2013-04-22 12:37:00,
2013-04-22 08:42:00,37.9,28.0,30.59,ENE,68,5.5,5.5,67,0.00,,CLR,0.00,VWS V13.01,2013-04-22 12:42:00,
2013-04-22 08:47:00,38.4,28.4,30.60,SE,135,1.3,2.0,66,0.00,,CLR,0.00,VWS V13.01,2013-04-22 12:47:00,
2013-04-22 08:52:00,38.4,28.2,30.60,East,90,1.7,2.0,66,0.00,,CLR,0.00,VWS V13.01,2013-04-22 12:52:00,
2013-04-22 08:57:00,39.3,28.5,30.60,NE,45,1.3,2.0,65,0.00,,CLR,0.00,VWS V13.01,2013-04-22 12:57:00,
2013-04-22 09:03:00,39.9,28.5,30.60,ESE,112,2.4,2.4,64,0.00,,CLR,0.00,VWS V13.01,2013-04-22 13:03:00,
2013-04-22 09:08:00,39.9,29.0,30.60,SE,135,4.4,4.4,64,0.00,,CLR,0.00,VWS V13.01,2013-04-22 13:08:00,
2013-04-22 09:13:00,40.6,29.0,30.59,SE,135,5.8,5.8,63,0.00,,CLR,0.00,VWS V13.01,2013-04-22 13:13:00,
2013-04-22 09:18:00,40.8,29.2,30.59,NNE,22,5.8,5.8,63,0.00,,CLR,0.00,VWS V13.01,2013-04-22 13:18:00,
2013-04-22 09:23:00,40.8,29.1,30.59,NNE,22,3.3,3.3,63,0.00,,CLR,0.00,VWS V13.01,2013-04-22 13:23:00,
2013-04-22 09:28:00,41.3,29.5,30.59,NNE,22,0.4,2.0,62,0.00,,CLR,0.00,VWS V13.01,2013-04-22 13:28:00,
2013-04-22 09:33:00,41.7,29.3,30.59,ENE,68,5.5,5.5,61,0.00,,CLR,0.00,VWS V13.01,2013-04-22 13:33:00,
2013-04-22 09:38:00,41.9,29.5,30.59,SSE,158,1.3,2.0,61,0.00,,CLR,0.00,VWS V13.01,2013-04-22 13:38:00,
2013-04-22 09:43:00,42.4,29.5,30.59,SE,135,2.6,2.6,60,0.00,,CLR,0.00,VWS V13.01,2013-04-22 13:43:00,
2013-04-22 09:48:00,42.4,29.7,30.59,NNE,22,4.6,4.6,60,0.00,,CLR,0.00,VWS V13.01,2013-04-22 13:48:00,
2013-04-22 09:53:00,42.6,29.6,30.59,ENE,68,2.2,2.2,60,0.00,,CLR,0.00,VWS V13.01,2013-04-22 13:53:00,
2013-04-22 09:58:00,42.9,29.8,30.59,ENE,68,1.5,2.0,59,0.00,,CLR,0.00,VWS V13.01,2013-04-22 13:58:00,
2013-04-22 10:03:00,43.1,30.1,30.58,ESE,112,5.8,5.8,59,0.00,,CLR,0.00,VWS V13.01,2013-04-22 14:03:00,
2013-04-22 10:08:00,43.5,30.0,30.59,ENE,68,3.8,3.8,59,0.00,,CLR,0.00,VWS V13.01,2013-04-22 14:08:00,
2013-04-22 10:13:00,43.8,30.2,30.58,ESE,112,4.0,4.0,58,0.00,,CLR,0.00,VWS V13.01,2013-04-22 14:13:00,
2013-04-22 10:18:00,44.2,30.6,30.58,SSE,158,4.0,4.0,58,0.00,,CLR,0.00,VWS V13.01,2013-04-22 14:18:00,
2013-04-22 10:23:00,44.9,30.6,30.58,NE,45,2.0,2.0,57,0.00,,CLR,0.00,VWS V13.01,2013-04-22 14:23:00,
2013-04-22 10:28:00,44.4,30.5,30.58,SE,135,1.3,2.0,58,0.00,,CLR,0.00,VWS V13.01,2013-04-22 14:28:00,
2013-04-22 10:33:00,45.5,30.4,30.58,ESE,112,5.1,5.1,56,0.00,,CLR,0.00,VWS V13.01,2013-04-22 14:33:00,
2013-04-22 10:39:00,45.5,30.4,30.58,SSE,158,1.5,2.0,56,0.00,,CLR,0.00,VWS V13.01,2013-04-22 14:39:00,
2013-04-22 10:44:00,45.6,30.4,30.58,South,180,1.3,2.0,55,0.00,,CLR,0.00,VWS V13.01,2013-04-22 14:44:00,
2013-04-22 10:49:00,46.0,30.4,30.57,SE,135,3.5,3.5,55,0.00,,CLR,0.00,VWS V13.01,2013-04-22 14:49:00,
2013-04-22 10:54:00,46.5,30.8,30.57,SE,135,5.5,5.5,55,0.00,,CLR,0.00,VWS V13.01,2013-04-22 14:54:00,
2013-04-22 10:59:00,46.7,31.2,30.57,ESE,112,2.0,2.0,54,0.00,,CLR,0.00,VWS V13.01,2013-04-22 14:59:00,
2013-04-22 11:04:00,47.3,31.1,30.57,SSE,158,1.5,2.0,54,0.00,,CLR,0.00,VWS V13.01,2013-04-22 15:04:00,
2013-04-22 11:09:00,47.4,31.5,30.57,South,180,5.3,5.3,53,0.00,,CLR,0.00,VWS V13.01,2013-04-22 15:09:00,
2013-04-22 11:14:00,47.4,31.0,30.56,ENE,68,2.6,2.6,53,0.00,,CLR,0.00,VWS V13.01,2013-04-22 15:14:00,
2013-04-22 11:19:00,47.8,31.4,30.56,ESE,112,3.1,3.1,53,0.00,,CLR,0.00,VWS V13.01,2013-04-22 15:19:00,
2013-04-22 11:24:00,47.8,31.9,30.56,SE,135,6.0,6.0,53,0.00,,CLR,0.00,VWS V13.01,2013-04-22 15:24:00,
2013-04-22 11:29:00,48.7,31.1,30.56,SSW,202,2.6,2.6,51,0.00,,CLR,0.00,VWS V13.01,2013-04-22 15:29:00,
2013-04-22 11:34:00,49.1,31.9,30.56,ENE,68,3.8,3.8,50,0.00,,CLR,0.00,VWS V13.01,2013-04-22 15:34:00,
2013-04-22 11:39:00,49.2,32.4,30.56,SE,135,2.6,2.6,51,0.00,,CLR,0.00,VWS V13.01,2013-04-22 15:39:00,
2013-04-22 11:44:00,49.2,32.9,30.56,ENE,68,5.5,5.5,51,0.00,,CLR,0.00,VWS V13.01,2013-04-22 15:44:00,
2013-04-22 11:49:00,49.2,33.0,30.56,East,90,5.3,5.3,51,0.00,,CLR,0.00,VWS V13.01,2013-04-22 15:49:00,
2013-04-22 11:54:00,51.0,33.1,30.56,NNE,22,2.9,2.9,50,0.00,,CLR,0.00,VWS V13.01,2013-04-22 15:54:00,
2013-04-22 11:59:00,51.0,32.8,30.55,SSE,158,3.8,3.8,50,0.00,,CLR,0.00,VWS V13.01,2013-04-22 15:59:00,
2013-04-22 12:04:00,52.1,32.8,30.55,East,90,2.9,2.9,48,0.00,,CLR,0.00,VWS V13.01,2013-04-22 16:04:00,
2013-04-22 12:09:00,52.5,33.0,30.55,NE,45,2.0,2.0,48,0.00,,CLR,0.00,VWS V13.01,2013-04-22 16:09:00,
2013-04-22 12:15:00,52.8,34.2,30.55,SSE,158,4.0,4.0,48,0.00,,CLR,0.00,VWS V13.01,2013-04-22 16:15:00,
2013-04-22 12:20:00,52.8,33.2,30.54,SE,135,1.5,2.0,46,0.00,,CLR,0.00,VWS V13.01,2013-04-22 16:20:00,
2013-04-22 12:25:00,52.8,32.1,30.54,SSE,158,2.9,2.9,47,0.00,,CLR,0.00,VWS V13.01,2013-04-22 16:25:00,
2013-04-22 12:30:00,52.8,32.0,30.54,South,180,2.2,2.2,45,0.00,,CLR,0.00,VWS V13.01,2013-04-22 16:30:00,
2013-04-22 12:35:00,52.8,33.2,30.54,East,90,4.0,4.0,45,0.00,,CLR,0.00,VWS V13.01,2013-04-22 16:35:00,
2013-04-22 12:40:00,52.8,33.2,30.53,East,90,0.4,2.0,47,0.00,,CLR,0.00,VWS V13.01,2013-04-22 16:40:00,
2013-04-22 12:45:00,53.4,33.8,30.53,SE,135,5.1,5.1,46,0.00,,CLR,0.00,VWS V13.01,2013-04-22 16:45:00,
2013-04-22 12:50:00,54.5,33.8,30.52,South,180,1.7,2.0,45,0.00,,CLR,0.00,VWS V13.01,2013-04-22 16:50:00,
2013-04-22 12:55:00,54.5,34.2,30.52,ENE,68,6.0,6.0,45,0.00,,CLR,0.00,VWS V13.01,2013-04-22 16:55:00,
2013-04-22 13:00:00,55.2,34.2,30.52,East,90,6.2,6.2,44,0.00,,CLR,0.00,VWS V13.01,2013-04-22 17:00:00,
2013-04-22 13:05:00,55.2,32.5,30.52,SW,225,3.5,3.5,44,0.00,,CLR,0.00,VWS V13.01,2013-04-22 17:05:00,
2013-04-22 13:10:00,55.0,33.7,30.52,North,0,5.1,5.1,44,0.00,,CLR,0.00,VWS V13.01,2013-04-22 17:10:00,
2013-04-22 13:15:00,55.4,33.1,30.51,ESE,112,2.6,2.6,44,0.00,,CLR,0.00,VWS V13.01,2013-04-22 17:15:00,
2013-04-22 13:20:00,55.9,34.5,30.52,East,90,4.9,4.9,44,0.00,,CLR,0.00,VWS V13.01,2013-04-22 17:20:00,
2013-04-22 13:25:00,55.9,34.4,30.51,South,180,3.3,3.3,44,0.00,,CLR,0.00,VWS V13.01,2013-04-22 17:25:00,
2013-04-22 13:30:00,56.8,35.1,30.51,ESE,112,5.3,5.3,43,0.00,,CLR,0.00,VWS V13.01,2013-04-22 17:30:00,
2013-04-22 13:35:00,57.0,34.2,30.51,East,90,2.4,2.4,43,0.00,,CLR,0.00,VWS V13.01,2013-04-22 17:35:00,
2013-04-22 13:40:00,57.0,33.5,30.50,SE,135,6.4,6.4,43,0.00,,CLR,0.00,VWS V13.01,2013-04-22 17:40:00,
2013-04-22 13:45:00,57.2,34.4,30.51,ENE,68,1.3,2.0,42,0.00,,CLR,0.00,VWS V13.01,2013-04-22 17:45:00,
2013-04-22 13:50:00,57.5,34.6,30.50,SSE,158,4.9,4.9,42,0.00,,CLR,0.00,VWS V13.01,2013-04-22 17:50:00,
2013-04-22 13:55:00,57.9,33.8,30.50,ENE,68,2.9,2.9,40,0.00,,CLR,0.00,VWS V13.01,2013-04-22 17:55:00,
2013-04-22 14:00:00,58.1,34.6,30.50,East,90,5.8,5.8,41,0.00,,CLR,0.00,VWS V13.01,2013-04-22 18:00:00,
2013-04-22 14:05:00,58.8,35.2,30.49,SE,135,2.9,2.9,41,0.00,,CLR,0.00,VWS V13.01,2013-04-22 18:05:00,
2013-04-22 14:10:00,58.8,33.9,30.49,SSE,158,7.3,7.3,41,0.00,,CLR,0.00,VWS V13.01,2013-04-22 18:10:00,
2013-04-22 14:16:00,58.8,33.9,30.49,ENE,68,1.7,2.0,39,0.00,,CLR,0.00,VWS V13.01,2013-04-22 18:16:00,
2013-04-22 14:21:00,58.8,33.9,30.49,NE,45,2.4,2.4,39,0.00,,CLR,0.00,VWS V13.01,2013-04-22 18:21:00,
2013-04-22 14:26:00,58.8,33.9,30.49,SE,135,2.2,2.2,38,0.00,,CLR,0.00,VWS V13.01,2013-04-22 18:26:00,
2013-04-22 14:31:00,59.0,33.3,30.49,East,90,1.3,2.0,38,0.00,,CLR,0.00,VWS V13.01,2013-04-22 18:31:00,
2013-04-22 14:36:00,59.1,34.4,30.49,East,90,2.9,2.9,39,0.00,,CLR,0.00,VWS V13.01,2013-04-22 18:36:00,
2013-04-22 14:41:00,59.1,34.2,30.48,SE,135,3.8,3.8,39,0.00,,CLR,0.00,VWS V13.01,2013-04-22 18:41:00,
2013-04-22 14:46:00,60.0,34.3,30.48,NE,45,4.2,4.2,37,0.00,,CLR,0.00,VWS V13.01,2013-04-22 18:46:00,
2013-04-22 14:51:00,60.2,32.3,30.48,South,180,6.2,6.2,35,0.00,,CLR,0.00,VWS V13.01,2013-04-22 18:51:00,
2013-04-22 14:56:00,60.0,33.0,30.48,SE,135,5.5,5.5,36,0.00,,CLR,0.00,VWS V13.01,2013-04-22 18:56:00,
2013-04-22 15:01:00,59.9,32.9,30.48,ESE,112,6.0,6.0,37,0.00,,CLR,0.00,VWS V13.01,2013-04-22 19:01:00,
2013-04-22 15:06:00,59.9,32.2,30.48,ESE,112,4.9,4.9,35,0.00,,CLR,0.00,VWS V13.01,2013-04-22 19:06:00,
2013-04-22 15:11:00,59.7,33.6,30.47,NE,45,1.5,2.0,36,0.00,,CLR,0.00,VWS V13.01,2013-04-22 19:11:00,
2013-04-22 15:16:00,60.0,33.0,30.47,ENE,68,6.2,6.2,36,0.00,,CLR,0.00,VWS V13.01,2013-04-22 19:16:00,
2013-04-22 15:21:00,60.0,33.0,30.47,ENE,68,3.5,3.5,36,0.00,,CLR,0.00,VWS V13.01,2013-04-22 19:21:00,
2013-04-22 15:26:00,60.0,32.3,30.47,SW,225,2.2,2.2,36,0.00,,CLR,0.00,VWS V13.01,2013-04-22 19:26:00,
2013-04-22 15:31:00,60.0,32.7,30.47,NE,45,3.8,3.8,36,0.00,,CLR,0.00,VWS V13.01,2013-04-22 19:31:00,
2013-04-22 15:36:00,60.4,32.8,30.46,SE,135,1.5,2.0,35,0.00,,CLR,0.00,VWS V13.01,2013-04-22 19:36:00,
2013-04-22 15:41:00,60.4,33.0,30.46,East,90,5.8,5.8,35,0.00,,CLR,0.00,VWS V13.01,2013-04-22 19:41:00,
2013-04-22 15:46:00,60.9,33.1,30.46,ESE,112,3.5,3.5,35,0.00,,CLR,0.00,VWS V13.01,2013-04-22 19:46:00,
2013-04-22 15:51:00,60.9,33.1,30.46,East,90,4.6,4.6,34,0.00,,CLR,0.00,VWS V13.01,2013-04-22 19:51:00,
2013-04-22 15:56:00,60.9,33.3,30.46,East,90,4.6,4.6,34,0.00,,CLR,0.00,VWS V13.01,2013-04-22 19:56:00,
2013-04-22 16:01:00,60.9,33.4,30.45,East,90,0.6,2.0,34,0.00,,CLR,0.00,VWS V13.01,2013-04-22 20:01:00,
2013-04-22 16:06:00,61.5,33.6,30.45,NE,45,1.3,2.0,35,0.00,,CLR,0.00,VWS V13.01,2013-04-22 20:06:00,
2013-04-22 16:11:00,61.7,33.1,30.45,ESE,112,3.8,3.8,34,0.00,,CLR,0.00,VWS V13.01,2013-04-22 20:11:00,
2013-04-22 16:16:00,61.3,32.2,30.45,SSW,202,5.5,5.5,34,0.00,,CLR,0.00,VWS V13.01,2013-04-22 20:16:00,
2013-04-22 16:21:00,61.3,32.5,30.45,ESE,112,4.9,4.9,34,0.00,,CLR,0.00,VWS V13.01,2013-04-22 20:21:00,
2013-04-22 16:26:00,61.1,33.3,30.45,East,90,4.9,4.9,34,0.00,,CLR,0.00,VWS V13.01,2013-04-22 20:26:00,
2013-04-22 16:31:00,61.3,32.7,30.44,SE,135,6.0,6.0,34,0.00,,CLR,0.00,VWS V13.01,2013-04-22 20:31:00,
2013-04-22 16:36:00,61.3,32.0,30.44,SE,135,2.4,2.4,34,0.00,,CLR,0.00,VWS V13.01,2013-04-22 20:36:00,
2013-04-22 16:41:00,61.5,32.0,30.44,ENE,68,0.4,2.0,33,0.00,,CLR,0.00,VWS V13.01,2013-04-22 20:41:00,
2013-04-22 16:46:00,61.1,31.0,30.44,NNE,22,2.9,2.9,32,0.00,,CLR,0.00,VWS V13.01,2013-04-22 20:46:00,
2013-04-22 16:51:00,60.9,31.6,30.44,NE,45,5.1,5.1,33,0.00,,CLR,0.00,VWS V13.01,2013-04-22 20:51:00,
2013-04-22 16:56:00,60.9,31.6,30.44,East,90,0.2,2.0,34,0.00,,CLR,0.00,VWS V13.01,2013-04-22 20:56:00,
2013-04-22 17:01:00,61.1,30.9,30.44,ESE,112,6.0,6.0,33,0.00,,CLR,0.00,VWS V13.01,2013-04-22 21:01:00,
2013-04-22 17:06:00,60.9,30.9,30.43,SE,135,5.5,5.5,32,0.00,,CLR,0.00,VWS V13.01,2013-04-22 21:06:00,
2013-04-22 17:11:00,60.8,30.9,30.43,SE,135,3.1,3.1,32,0.00,,CLR,0.00,VWS V13.01,2013-04-22 21:11:00,
2013-04-22 17:16:00,60.9,30.1,30.43,SE,135,4.2,4.2,30,0.00,,CLR,0.00,VWS V13.01,2013-04-22 21:16:00,
2013-04-22 17:21:00,60.8,29.3,30.43,SW,225,3.3,3.3,30,0.00,,CLR,0.00,VWS V13.01,2013-04-22 21:21:00,
2013-04-22 17:26:00,60.8,29.0,30.43,East,90,5.5,5.5,30,0.00,,CLR,0.00,VWS V13.01,2013-04-22 21:26:00,
2013-04-22 17:31:00,60.9,30.9,30.43,ENE,68,6.7,6.7,32,0.00,,CLR,0.00,VWS V13.01,2013-04-22 21:31:00,
2013-04-22 17:36:00,60.9,30.1,30.43,NE,45,4.0,4.0,32,0.00,,CLR,0.00,VWS V13.01,2013-04-22 21:36:00,
2013-04-22 17:41:00,60.9,29.2,30.43,SE,135,3.1,3.1,31,0.00,,CLR,0.00,VWS V13.01,2013-04-22 21:41:00,
2013-04-22 17:46:00,60.6,29.0,30.43,SE,135,4.2,4.2,30,0.00,,CLR,0.00,VWS V13.01,2013-04-22 21:46:00,
2013-04-22 17:51:00,60.6,29.8,30.43,SE,135,4.2,4.2,31,0.00,,CLR,0.00,VWS V13.01,2013-04-22 21:51:00,
2013-04-22 17:56:00,60.4,28.9,30.43,SSE,158,4.2,4.2,30,0.00,,CLR,0.00,VWS V13.01,2013-04-22 21:56:00,
2013-04-22 18:01:00,60.4,29.6,30.43,ENE,68,1.7,2.0,31,0.00,,CLR,0.00,VWS V13.01,2013-04-22 22:01:00,
2013-04-22 18:06:00,60.6,29.8,30.43,ENE,68,6.2,6.2,31,0.00,,CLR,0.00,VWS V13.01,2013-04-22 22:06:00,
2013-04-22 18:11:00,60.6,30.6,30.43,ESE,112,5.3,5.3,31,0.00,,CLR,0.00,VWS V13.01,2013-04-22 22:11:00,
2013-04-22 18:16:00,60.6,29.8,30.43,ESE,112,0.6,2.0,31,0.00,,CLR,0.00,VWS V13.01,2013-04-22 22:16:00,
2013-04-22 18:21:00,60.4,28.9,30.43,SE,135,4.2,4.2,31,0.00,,CLR,0.00,VWS V13.01,2013-04-22 22:21:00,
2013-04-22 18:26:00,60.2,29.3,30.43,SSE,158,2.2,2.2,31,0.00,,CLR,0.00,VWS V13.01,2013-04-22 22:26:00,
2013-04-22 18:31:00,60.0,29.2,30.43,ESE,112,2.2,2.2,31,0.00,,CLR,0.00,VWS V13.01,2013-04-22 22:31:00,
2013-04-22 18:36:00,59.7,29.0,30.43,SSE,158,2.4,2.4,31,0.00,,CLR,0.00,VWS V13.01,2013-04-22 22:36:00,
2013-04-22 18:41:00,59.5,28.7,30.43,East,90,6.0,6.0,31,0.00,,CLR,0.00,VWS V13.01,2013-04-22 22:41:00,
2013-04-22 18:46:00,59.1,29.3,30.43,SSW,202,6.0,6.0,32,0.00,,CLR,0.00,VWS V13.01,2013-04-22 22:46:00,
2013-04-22 18:51:00,59.0,29.0,30.43,East,90,0.6,2.0,32,0.00,,CLR,0.00,VWS V13.01,2013-04-22 22:51:00,
2013-04-22 18:56:00,58.6,28.5,30.43,ESE,112,0.8,2.0,33,0.00,,CLR,0.00,VWS V13.01,2013-04-22 22:56:00,
2013-04-22 19:01:00,58.1,28.4,30.43,ESE,112,4.9,4.9,32,0.00,,CLR,0.00,VWS V13.01,2013-04-22 23:01:00,
2013-04-22 19:06:00,57.9,28.1,30.43,SE,135,1.1,2.0,32,0.00,,CLR,0.00,VWS V13.01,2013-04-22 23:06:00,
2013-04-22 19:11:00,57.7,29.4,30.43,East,90,2.2,2.2,33,0.00,,CLR,0.00,VWS V13.01,2013-04-22 23:11:00,
2013-04-22 19:16:00,57.7,29.2,30.43,SE,135,2.2,2.2,33,0.00,,CLR,0.00,VWS V13.01,2013-04-22 23:16:00,
2013-04-22 19:21:00,57.0,28.0,30.44,South,180,0.8,2.0,34,0.00,,CLR,0.00,VWS V13.01,2013-04-22 23:21:00,
2013-04-22 19:26:00,56.6,28.4,30.44,SE,135,4.0,4.0,34,0.00,,CLR,0.00,VWS V13.01,2013-04-22 23:26:00,
2013-04-22 19:31:00,56.1,27.2,30.44,ESE,112,4.0,4.0,33,0.00,,CLR,0.00,VWS V13.01,2013-04-22 23:31:00,
2013-04-22 19:36:00,55.5,27.3,30.44,East,90,4.0,4.0,34,0.00,,CLR,0.00,VWS V13.01,2013-04-22 23:36:00,
2013-04-22 19:41:00,55.0,27.0,30.44,ESE,112,0.4,2.0,34,0.00,,CLR,0.00,VWS V13.01,2013-04-22 23:41:00,
2013-04-22 19:46:00,54.6,27.4,30.44,ESE,112,0.4,2.0,34,0.00,,CLR,0.00,VWS V13.01,2013-04-22 23:46:00,
2013-04-22 19:51:00,54.3,26.4,30.44,ESE,112,3.3,3.3,35,0.00,,CLR,0.00,VWS V13.01,2013-04-22 23:51:00,
2013-04-22 19:56:00,53.7,26.7,30.43,East,90,2.9,2.9,35,0.00,,CLR,0.00,VWS V13.01,2013-04-22 23:56:00,
2013-04-22 20:01:00,53.2,26.5,30.44,SE,135,1.3,2.0,35,0.00,,CLR,0.00,VWS V13.01,2013-04-23 00:01:00,
2013-04-22 20:06:00,53.2,25.9,30.44,ESE,112,2.6,2.6,35,0.00,,CLR,0.00,VWS V13.01,2013-04-23 00:06:00,
2013-04-22 20:11:00,52.7,25.7,30.44,ESE,112,0.6,2.0,35,0.00,,CLR,0.00,VWS V13.01,2013-04-23 00:11:00,
2013-04-22 20:16:00,52.7,25.5,30.44,ESE,112,2.4,2.4,35,0.00,,CLR,0.00,VWS V13.01,2013-04-23 00:16:00,
2013-04-22 20:21:00,52.1,25.3,30.44,East,90,3.8,3.8,35,0.00,,CLR,0.00,VWS V13.01,2013-04-23 00:21:00,
2013-04-22 20:26:00,51.9,25.7,30.45,ENE,68,1.3,2.0,35,0.00,,CLR,0.00,VWS V13.01,2013-04-23 00:26:00,
2013-04-22 20:31:00,51.9,24.9,30.44,ESE,112,3.1,3.1,35,0.00,,CLR,0.00,VWS V13.01,2013-04-23 00:31:00,
2013-04-22 20:36:00,51.4,25.2,30.45,North,0,2.9,2.9,36,0.00,,CLR,0.00,VWS V13.01,2013-04-23 00:36:00,
2013-04-22 20:41:00,51.0,25.0,30.45,East,90,0.6,2.0,36,0.00,,CLR,0.00,VWS V13.01,2013-04-23 00:41:00,
2013-04-22 20:46:00,50.7,24.1,30.45,ESE,112,0.4,2.0,36,0.00,,CLR,0.00,VWS V13.01,2013-04-23 00:46:00,
2013-04-22 20:51:00,50.7,24.6,30.45,ESE,112,2.0,2.0,36,0.00,,CLR,0.00,VWS V13.01,2013-04-23 00:51:00,
2013-04-22 20:56:00,50.3,24.4,30.45,ESE,112,0.2,2.0,36,0.00,,CLR,0.00,VWS V13.01,2013-04-23 00:56:00,
2013-04-22 21:01:00,50.3,24.2,30.45,ESE,112,4.2,4.2,36,0.00,,CLR,0.00,VWS V13.01,2013-04-23 01:01:00,
2013-04-22 21:06:00,49.8,23.9,30.45,ESE,112,4.2,4.2,36,0.00,,CLR,0.00,VWS V13.01,2013-04-23 01:06:00,
2013-04-22 21:11:00,49.8,23.8,30.46,ESE,112,4.2,4.2,36,0.00,,CLR,0.00,VWS V13.01,2013-04-23 01:11:00,
2013-04-22 21:16:00,49.4,23.6,30.46,SE,135,1.3,2.0,36,0.00,,CLR,0.00,VWS V13.01,2013-04-23 01:16:00,
2013-04-22 21:21:00,49.2,23.4,30.46,ESE,112,2.9,2.9,36,0.00,,CLR,0.00,VWS V13.01,2013-04-23 01:21:00,
2013-04-22 21:26:00,49.1,23.4,30.45,ESE,112,4.6,4.6,36,0.00,,CLR,0.00,VWS V13.01,2013-04-23 01:26:00,
2013-04-22 21:31:00,49.1,24.0,30.45,ESE,112,4.6,4.6,37,0.00,,CLR,0.00,VWS V13.01,2013-04-23 01:31:00,
2013-04-22 21:36:00,48.9,23.8,30.45,ESE,112,5.3,5.3,37,0.00,,CLR,0.00,VWS V13.01,2013-04-23 01:36:00,
2013-04-22 21:42:00,48.7,24.2,30.46,SE,135,2.0,2.0,38,0.00,,CLR,0.00,VWS V13.01,2013-04-23 01:42:00,
2013-04-22 21:46:00,48.5,24.2,30.46,SE,135,5.1,5.1,38,0.00,,CLR,0.00,VWS V13.01,2013-04-23 01:46:00,
2013-04-22 21:52:00,48.3,24.5,30.46,ESE,112,1.7,2.0,39,0.00,,CLR,0.00,VWS V13.01,2013-04-23 01:52:00,
2013-04-22 21:57:00,48.2,24.4,30.46,SE,135,2.6,2.6,39,0.00,,CLR,0.00,VWS V13.01,2013-04-23 01:57:00,
2013-04-22 22:02:00,48.0,24.9,30.46,ESE,112,2.6,2.6,39,0.00,,CLR,0.00,VWS V13.01,2013-04-23 02:02:00,
2013-04-22 22:07:00,47.8,24.9,30.46,SE,135,2.6,2.6,40,0.00,,CLR,0.00,VWS V13.01,2013-04-23 02:07:00,
2013-04-22 22:12:00,47.4,24.9,30.46,ESE,112,5.3,5.3,41,0.00,,CLR,0.00,VWS V13.01,2013-04-23 02:12:00,
2013-04-22 22:17:00,47.3,24.8,30.46,SE,135,5.3,5.3,41,0.00,,CLR,0.00,VWS V13.01,2013-04-23 02:17:00,
2013-04-22 22:22:00,47.1,24.6,30.47,ESE,112,5.3,5.3,41,0.00,,CLR,0.00,VWS V13.01,2013-04-23 02:22:00,
2013-04-22 22:27:00,46.9,24.6,30.47,ESE,112,1.5,2.0,42,0.00,,CLR,0.00,VWS V13.01,2013-04-23 02:27:00,
2013-04-22 22:32:00,46.7,24.6,30.47,ESE,112,1.5,2.0,42,0.00,,CLR,0.00,VWS V13.01,2013-04-23 02:32:00,
2013-04-22 22:37:00,46.5,24.7,30.47,SE,135,1.5,2.0,42,0.00,,CLR,0.00,VWS V13.01,2013-04-23 02:37:00,
2013-04-22 22:42:00,46.5,24.7,30.47,SE,135,1.5,2.0,42,0.00,,CLR,0.00,VWS V13.01,2013-04-23 02:42:00,
2013-04-22 22:47:00,46.2,24.4,30.47,SE,135,1.5,2.0,42,0.00,,CLR,0.00,VWS V13.01,2013-04-23 02:47:00,
2013-04-22 22:52:00,46.0,24.2,30.47,ESE,112,1.5,2.0,42,0.00,,CLR,0.00,VWS V13.01,2013-04-23 02:52:00,
2013-04-22 22:57:00,45.8,24.0,30.47,East,90,1.5,2.0,43,0.00,,CLR,0.00,VWS V13.01,2013-04-23 02:57:00,
2013-04-22 23:02:00,45.6,24.4,30.46,SE,135,4.9,4.9,43,0.00,,CLR,0.00,VWS V13.01,2013-04-23 03:02:00,
2013-04-22 23:07:00,45.6,24.9,30.46,ESE,112,4.0,4.0,44,0.00,,CLR,0.00,VWS V13.01,2013-04-23 03:07:00,
2013-04-22 23:12:00,45.6,24.7,30.46,ENE,68,4.0,4.0,44,0.00,,CLR,0.00,VWS V13.01,2013-04-23 03:12:00,
2013-04-22 23:17:00,45.3,25.2,30.46,East,90,4.0,4.0,45,0.00,,CLR,0.00,VWS V13.01,2013-04-23 03:17:00,